CYCG Airport Information

Runway Information
Runway 15 Length 5300 ft width 150 ft
Elevation 1615 ft Threshold 0 ft Heading 169
Runway 33 Length 5300 ft Width 150 ft
Elevation 1621 ft Threshold 0 ft Heading 349
Airport Frequencies
Type ATF Name ATF Frequency 122.1 MHZ
Type CNTR Name VANCOUVER Frequency 134.2 MHZ
Type RCO Name KAMLOOPS R Frequency 126.7 MHZ
Type RDO Name RDO Frequency 122.1 MHZ
Airport Navaids
Type NDB Name Castlegar Frequency 227 KHZ
Type NDB Name Champion Frequency 206 KHZ
Type DME Name Castlegar Frequency 110100 KHZ
Type NDB Name Brilliant Frequency 269 KHZ
Airport Weather Information & NOTAM
ADDS - METARS form results

(0747 UTC 14 June 2021)
Data provider http://aviationweather.gov/metar/data/
 
Forecast for: AMD
Text: TAF AMD CYCG 140331Z 1403/1404 VRB20G30KT 6SM TSRA BKN070CB RMK NXT FCST WILL BE ISSUED AT 141445Z
Forecast period: 0300 to 0400 UTC 14 June 2021
Forecast type: FROM: standard forecast or significant change
Winds: variable direction winds at 23 MPH (20 knots; 10.3 m/s)
gusting to 34 MPH (30 knots; 15.4 m/s)
Visibility: 6 miles (10 km)
Ceiling: 7000 feet AGL
Clouds: broken clouds at 7000 feet AGL
Weather: TSRA  (rain associated with thunderstorm(s))